Jo Spirit — LARU5 — position and weather

sailwx.info

Track history (hours):
 
Tides and Currents Weather Stations Pressure Air Temp Water Temp Dewpoint Dewpoint Depression Visibility Wind Speed Wind Dir Waves Ship Positions

Jo Spirit

Last reported at 2018-May-21 08:28 UTC. Time now 2018-May-22 19:39 UTC.
Position N 37°06' E 015°48'.

Length 107 m; draft 5.7 m.

Type: Ship. MMSI: 257826000.

Date/timePositionNaut miles runAvg speedWind from/ knotsBaromVisibWave heightAir tempDewpointWater temp
2018-May-21 08:28N 37°06' E 015°48'713.1
2018-May-21 07:57N 37°11' E 015°54'2112.9
2018-May-21 06:22N 37°26' E 016°10'513.3
2018-May-21 05:58N 37°31' E 016°15'38510.3
2018-May-19 16:33N 43°43' E 014°05'113.3
2018-May-19 16:29N 43°44' E 014°05'  
2018-May-16 04:00N 36°28' E 014°38'713.2
2018-May-16 03:30N 36°29' E 014°30'713.4
2018-May-16 03:00N 36°31' E 014°22'713.4
2018-May-16 02:30N 36°33' E 014°14'2013.2
2018-May-16 00:58N 36°38' E 013°49'2013.1
2018-May-15 23:25N 36°44' E 013°25'513.1
2018-May-15 23:00N 36°45' E 013°18'  
2018-May-12 19:17N 35°60' W 005°12'413.7
2018-May-12 19:00N 35°59' W 005°16'815.1
2018-May-12 18:30N 35°58' W 005°25'  
Track history (hours):
 
Tides and Currents Weather Stations Pressure Air Temp Water Temp Dewpoint Dewpoint Depression Visibility Wind Speed Wind Dir Waves Ship Positions

Jo Spirit

Last reported at 2018-May-21 08:28 UTC. Time now 2018-May-22 19:39 UTC.
Position N 37°06' E 015°48'.

Length 107 m; draft 5.7 m.

Type: Ship. MMSI: 257826000.

Date/timePositionNaut miles runAvg speedWind from/ knotsBaromVisibWave heightAir tempDewpointWater temp
2018-May-21 08:28N 37°06' E 015°48'713.1
2018-May-21 07:57N 37°11' E 015°54'2112.9
2018-May-21 06:22N 37°26' E 016°10'513.3
2018-May-21 05:58N 37°31' E 016°15'38510.3
2018-May-19 16:33N 43°43' E 014°05'113.3
2018-May-19 16:29N 43°44' E 014°05'  
2018-May-16 04:00N 36°28' E 014°38'713.2
2018-May-16 03:30N 36°29' E 014°30'713.4
2018-May-16 03:00N 36°31' E 014°22'713.4
2018-May-16 02:30N 36°33' E 014°14'2013.2
2018-May-16 00:58N 36°38' E 013°49'2013.1
2018-May-15 23:25N 36°44' E 013°25'513.1
2018-May-15 23:00N 36°45' E 013°18'  
2018-May-12 19:17N 35°60' W 005°12'413.7
2018-May-12 19:00N 35°59' W 005°16'815.1
2018-May-12 18:30N 35°58' W 005°25'  

Dump ship's entire track history